createdAt,value
2022-11-03T00:01:51.326Z,100477.97
2022-11-03T00:04:20.583Z,100502.00
2022-11-03T00:06:53.508Z,100477.06
2022-11-03T00:09:28.024Z,100490.94
2022-11-03T00:11:58.982Z,100498.41
2022-11-03T00:14:27.030Z,100502.44
2022-11-03T00:16:56.336Z,100505.78
2022-11-03T00:19:24.311Z,100496.31
2022-11-03T00:21:52.709Z,100500.22
2022-11-03T00:24:20.825Z,100501.56
2022-11-03T00:26:48.823Z,100498.25
2022-11-03T00:29:16.844Z,100491.94
2022-11-03T00:31:47.561Z,100479.66
2022-11-03T00:34:19.067Z,100480.81
2022-11-03T00:36:49.187Z,100498.97
2022-11-03T00:39:17.978Z,100474.88
2022-11-03T00:41:50.844Z,100492.81
2022-11-03T00:44:19.154Z,100488.94
2022-11-03T00:46:47.418Z,100445.06
2022-11-03T00:49:15.594Z,100490.28
2022-11-03T00:51:49.518Z,100483.28
2022-11-03T00:54:28.392Z,100442.38
2022-11-03T00:57:01.770Z,100465.63
2022-11-03T00:59:34.547Z,100438.38
2022-11-03T01:02:05.962Z,100441.00
2022-11-03T01:04:56.973Z,100408.41
2022-11-03T01:07:53.542Z,100409.22
2022-11-03T01:10:27.683Z,100403.88
2022-11-03T01:13:13.672Z,100395.50
2022-11-03T01:15:51.171Z,100425.19
2022-11-03T01:18:21.476Z,100425.84
2022-11-03T01:20:57.661Z,100420.19
2022-11-03T01:23:27.618Z,100412.22
2022-11-03T01:26:02.536Z,100418.84
2022-11-03T01:28:31.479Z,100412.69
2022-11-03T01:31:09.837Z,100418.84
2022-11-03T01:33:38.131Z,100432.84
2022-11-03T01:36:12.073Z,100428.97
2022-11-03T01:38:44.296Z,100398.41
2022-11-03T01:41:24.010Z,100416.84
2022-11-03T01:46:37.842Z,100403.38
2022-11-03T01:49:07.109Z,100393.06
2022-11-03T01:51:43.796Z,100406.53
2022-11-03T01:54:15.031Z,100394.06
2022-11-03T01:56:47.232Z,100406.69
2022-11-03T01:59:17.548Z,100393.22
2022-11-03T02:01:45.772Z,100385.25
2022-11-03T02:04:15.350Z,100383.91
2022-11-03T02:06:44.624Z,100381.75
2022-11-03T02:09:19.101Z,100379.94
2022-11-03T02:12:04.601Z,100381.00
2022-11-03T02:14:32.779Z,100379.69
2022-11-03T02:17:04.133Z,100371.06
2022-11-03T02:19:34.578Z,100360.72
2022-11-03T02:22:07.370Z,100352.06
2022-11-03T02:24:38.607Z,100335.25
2022-11-03T02:27:09.196Z,100344.63
2022-11-03T02:29:37.285Z,100351.47
2022-11-03T02:32:06.650Z,100317.22
2022-11-03T02:34:38.521Z,100331.88
2022-11-03T02:37:08.975Z,100337.50
2022-11-03T02:39:40.655Z,100325.19
2022-11-03T02:42:12.264Z,100320.34
2022-11-03T02:44:40.316Z,100327.81
2022-11-03T02:47:20.850Z,100323.47
2022-11-03T02:49:49.392Z,100338.63
2022-11-03T02:52:36.017Z,100322.81
2022-11-03T02:55:09.938Z,100302.91
2022-11-03T02:57:42.822Z,100317.59
2022-11-03T03:00:11.857Z,100311.13
2022-11-03T03:02:43.850Z,100279.84
2022-11-03T03:05:13.256Z,100286.94
2022-11-03T03:07:43.706Z,100295.38
2022-11-03T03:10:16.492Z,100294.41
2022-11-03T03:12:51.597Z,100279.56
2022-11-03T03:15:24.620Z,100284.84
2022-11-03T03:18:00.028Z,100264.75
2022-11-03T03:20:38.785Z,100267.53
2022-11-03T03:23:13.184Z,100274.81
2022-11-03T03:25:45.956Z,100260.91
2022-11-03T03:28:23.281Z,100250.97
2022-11-03T03:30:51.446Z,100269.66
2022-11-03T03:33:22.273Z,100265.16
2022-11-03T03:35:53.691Z,100234.31
2022-11-03T03:38:26.886Z,100219.69
2022-11-03T03:40:56.431Z,100229.69
2022-11-03T03:43:26.206Z,100237.84
2022-11-03T03:45:56.686Z,100228.53
2022-11-03T03:48:30.483Z,100216.22
2022-11-03T03:51:01.592Z,100201.22
2022-11-03T03:53:35.413Z,100213.50
2022-11-03T03:56:08.152Z,100187.28
2022-11-03T03:58:37.990Z,100182.78
2022-11-03T04:01:07.337Z,100198.63
2022-11-03T04:03:37.089Z,100192.47
2022-11-03T04:06:07.299Z,100199.81
2022-11-03T04:08:38.212Z,100198.00
2022-11-03T04:11:23.997Z,100175.91
2022-11-03T04:14:20.018Z,100196.50
2022-11-03T04:17:17.323Z,100195.22
2022-11-03T04:20:06.764Z,100193.19
2022-11-03T04:22:35.122Z,100181.22
2022-11-03T04:25:14.843Z,100188.56
2022-11-03T04:27:45.677Z,100175.53
2022-11-03T04:30:19.356Z,100181.53
2022-11-03T04:32:50.474Z,100150.72
2022-11-03T04:35:22.665Z,100171.59
2022-11-03T04:37:57.127Z,100156.38
2022-11-03T04:40:33.816Z,100196.50
2022-11-03T04:43:05.435Z,100181.94
2022-11-03T04:45:38.956Z,100215.22
2022-11-03T04:48:12.244Z,100200.09
2022-11-03T04:50:45.549Z,100198.28
2022-11-03T04:53:15.197Z,100196.63
2022-11-03T04:55:44.184Z,100210.94
2022-11-03T04:58:21.381Z,100201.47
2022-11-03T05:00:57.816Z,100213.09
2022-11-03T05:03:31.932Z,100203.59
2022-11-03T05:06:09.974Z,100215.75
2022-11-03T05:08:42.369Z,100210.94
2022-11-03T05:11:15.790Z,100203.16
2022-11-03T05:13:43.836Z,100201.53
2022-11-03T05:16:13.164Z,100193.59
2022-11-03T05:18:42.596Z,100216.91
2022-11-03T05:21:11.737Z,100209.78
2022-11-03T05:23:41.077Z,100218.66
2022-11-03T05:26:13.343Z,100200.16
2022-11-03T05:28:43.439Z,100214.28
2022-11-03T05:31:26.166Z,100220.78
2022-11-03T05:33:54.892Z,100223.31
2022-11-03T05:36:23.883Z,100226.97
2022-11-03T05:39:00.693Z,100231.97
2022-11-03T05:41:32.089Z,100239.63
2022-11-03T05:44:01.175Z,100240.81
2022-11-03T05:46:34.092Z,100249.31
2022-11-03T05:49:02.755Z,100213.44
2022-11-03T05:51:33.728Z,100223.41
2022-11-03T05:54:02.719Z,100208.78
2022-11-03T05:56:31.964Z,100208.47
2022-11-03T05:59:01.267Z,100171.59
2022-11-03T06:01:32.912Z,100191.81
2022-11-03T06:04:01.309Z,100191.97
2022-11-03T06:06:32.453Z,100189.50
2022-11-03T06:09:02.664Z,100169.56
2022-11-03T06:11:34.862Z,100147.59
2022-11-03T06:14:12.656Z,100110.69
2022-11-03T06:16:43.002Z,100120.66
2022-11-03T06:19:21.111Z,100120.47
2022-11-03T06:21:49.415Z,100127.66
2022-11-03T06:24:17.412Z,100111.75
2022-11-03T06:26:45.704Z,100122.56
2022-11-03T06:29:18.312Z,100118.06
2022-11-03T06:31:50.859Z,100113.75
2022-11-03T06:34:44.284Z,100111.63
2022-11-03T06:37:20.170Z,100120.41
2022-11-03T06:39:48.805Z,100127.06
2022-11-03T06:42:17.952Z,100102.16
2022-11-03T06:44:47.292Z,100115.09
2022-11-03T06:47:24.413Z,100118.72
2022-11-03T06:50:22.107Z,100118.38
2022-11-03T06:52:50.545Z,100106.59
2022-11-03T06:55:26.622Z,100116.72
2022-11-03T06:57:56.849Z,100117.06
2022-11-03T07:00:34.002Z,100119.44
2022-11-03T07:03:08.633Z,100114.44
2022-11-03T07:05:37.054Z,100109.94
2022-11-03T07:08:12.560Z,100117.94
2022-11-03T07:10:41.479Z,100107.59
2022-11-03T07:13:14.062Z,100132.03
2022-11-03T07:16:39.975Z,100131.53
2022-11-03T07:19:15.292Z,100125.06
2022-11-03T07:21:46.050Z,100131.38
2022-11-03T07:24:16.909Z,100127.72
2022-11-03T07:26:50.855Z,100104.19
2022-11-03T07:29:22.528Z,100115.81
2022-11-03T07:36:14.543Z,100112.16
2022-11-03T07:38:39.000Z,100117.16
2022-11-03T07:41:10.723Z,100107.16
2022-11-03T07:43:41.086Z,100126.44
2022-11-03T07:46:10.929Z,100127.72
2022-11-03T07:48:44.877Z,100109.34
2022-11-03T07:51:18.047Z,100136.69
2022-11-03T07:53:54.675Z,100136.50
2022-11-03T07:56:23.438Z,100130.38
2022-11-03T07:58:53.247Z,100138.34
2022-11-03T08:01:27.817Z,100136.03
2022-11-03T08:03:58.504Z,100137.66
2022-11-03T08:06:27.262Z,100146.91
2022-11-03T08:09:07.126Z,100135.28
2022-11-03T08:11:43.525Z,100118.53
2022-11-03T08:14:17.683Z,100131.31
2022-11-03T08:16:45.870Z,100133.59
2022-11-03T08:19:13.959Z,100129.25
2022-11-03T08:21:41.945Z,100124.63
2022-11-03T08:24:12.587Z,100134.22
2022-11-03T08:26:46.804Z,100126.09
2022-11-03T08:29:19.384Z,100129.38
2022-11-03T08:31:47.644Z,100132.66
2022-11-03T08:37:45.124Z,100109.25
2022-11-03T08:40:36.813Z,100121.28
2022-11-03T08:43:36.168Z,100124.47
2022-11-03T08:46:15.906Z,100076.16
2022-11-03T08:48:46.848Z,100113.28
2022-11-03T08:51:24.235Z,100112.91
2022-11-03T08:53:54.076Z,100117.91
2022-11-03T08:56:24.076Z,100120.88
2022-11-03T08:58:53.430Z,100101.09
2022-11-03T09:02:03.087Z,100113.94
2022-11-03T09:05:02.435Z,100136.47
2022-11-03T09:11:41.408Z,100132.69
2022-11-03T09:15:00.265Z,100097.28
2022-11-03T09:18:26.802Z,100105.53
2022-11-03T09:22:20.055Z,100096.50
2022-11-03T09:29:51.585Z,100099.59
2022-11-03T09:36:16.706Z,100108.34
2022-11-03T09:38:51.494Z,100105.78
2022-11-03T09:41:58.452Z,100104.56
2022-11-03T09:45:40.381Z,100122.22
2022-11-03T09:48:14.520Z,100130.44
2022-11-03T09:51:21.110Z,100119.19
2022-11-03T09:53:54.780Z,100117.81
2022-11-03T09:56:26.030Z,100122.25
2022-11-03T09:58:55.070Z,100116.38
2022-11-03T10:01:34.312Z,100119.72
2022-11-03T10:04:58.406Z,100110.56
2022-11-03T10:10:59.754Z,100114.72
2022-11-03T10:18:05.787Z,100095.94
2022-11-03T10:20:33.939Z,100099.19
2022-11-03T10:23:01.905Z,100094.78
2022-11-03T10:25:40.904Z,100090.06
2022-11-03T10:28:18.656Z,100098.22
2022-11-03T10:31:18.265Z,100083.22
2022-11-03T10:33:57.479Z,100095.72
2022-11-03T10:36:30.013Z,100100.88
2022-11-03T10:39:02.240Z,100111.88
2022-11-03T10:41:44.892Z,100109.56
2022-11-03T10:44:19.941Z,100103.59
2022-11-03T10:47:08.136Z,100084.63
2022-11-03T10:50:36.391Z,100095.63
2022-11-03T10:53:22.695Z,100102.59
2022-11-03T10:55:59.962Z,100091.75
2022-11-03T10:59:10.061Z,100096.72
2022-11-03T11:01:40.912Z,100104.09
2022-11-03T11:04:18.873Z,100097.06
2022-11-03T11:08:04.724Z,100110.03
2022-11-03T11:10:51.110Z,100102.38
2022-11-03T11:13:31.859Z,100100.38
2022-11-03T11:16:07.753Z,100085.41
2022-11-03T11:29:48.973Z,100084.41
2022-11-03T11:33:12.319Z,100079.91
2022-11-03T11:38:38.189Z,100035.75
2022-11-03T11:44:39.614Z,100033.16
2022-11-03T11:51:48.827Z,100030.59
2022-11-03T11:54:40.290Z,100009.66
2022-11-03T12:00:58.777Z,100035.09
2022-11-03T12:03:30.124Z,100032.06
2022-11-03T12:05:59.495Z,100035.00
2022-11-03T12:08:40.361Z,100021.59
2022-11-03T12:12:14.032Z,100018.22
2022-11-03T12:29:21.413Z,99991.09
2022-11-03T12:43:43.375Z,99984.94
2022-11-03T12:58:42.701Z,99959.22
2022-11-03T13:23:38.623Z,99895.41
2022-11-03T13:31:27.379Z,99897.63
2022-11-03T13:34:12.612Z,99908.22
2022-11-03T13:41:20.168Z,99864.97
2022-11-03T14:23:39.297Z,99824.31
2022-11-03T14:30:16.899Z,99816.19
2022-11-03T14:33:05.322Z,99815.13
2022-11-03T14:36:25.502Z,99818.31
2022-11-03T14:45:42.980Z,99858.22
2022-11-03T14:59:36.591Z,99812.66
2022-11-03T15:02:11.151Z,99813.75
2022-11-03T15:05:08.887Z,99794.03
2022-11-03T15:07:52.069Z,99803.59
2022-11-03T15:11:03.806Z,99803.44
2022-11-03T15:29:04.028Z,99778.03
2022-11-03T17:01:47.359Z,99693.44
2022-11-03T17:08:53.233Z,99699.56
2022-11-03T17:15:16.050Z,99688.78
2022-11-03T17:21:26.462Z,99686.28
2022-11-03T17:24:44.901Z,99681.41
2022-11-03T17:30:56.101Z,99675.84
2022-11-03T17:33:39.755Z,99686.09
2022-11-03T17:36:14.001Z,99672.78
2022-11-03T17:38:52.232Z,99658.59
2022-11-03T17:41:23.727Z,99668.97
2022-11-03T17:43:55.682Z,99668.13
2022-11-03T17:46:26.580Z,99667.03
2022-11-03T17:48:58.314Z,99654.66
2022-11-03T17:51:44.500Z,99663.91
2022-11-03T17:54:20.423Z,99660.97
2022-11-03T17:56:59.801Z,99683.63
2022-11-03T17:59:32.292Z,99662.41
2022-11-03T18:02:04.344Z,99677.63
2022-11-03T18:04:39.435Z,99673.97
2022-11-03T18:07:16.675Z,99677.56
2022-11-03T18:09:45.229Z,99676.84
2022-11-03T18:12:35.499Z,99668.13
2022-11-03T18:15:10.055Z,99676.75
2022-11-03T18:17:58.727Z,99668.22
2022-11-03T18:20:35.451Z,99665.41
2022-11-03T18:23:17.490Z,99644.13
2022-11-03T18:25:48.745Z,99642.84
2022-11-03T18:28:31.749Z,99649.19
2022-11-03T18:31:05.737Z,99652.28
2022-11-03T18:33:51.743Z,99658.97
2022-11-03T18:36:24.551Z,99643.56
2022-11-03T18:39:00.128Z,99647.34
2022-11-03T18:41:52.995Z,99612.81
2022-11-03T18:44:31.523Z,99634.72
2022-11-03T18:47:07.972Z,99646.81
2022-11-03T18:49:50.908Z,99649.28
2022-11-03T18:52:34.600Z,99643.16
2022-11-03T18:55:08.796Z,99634.50
2022-11-03T18:57:41.045Z,99646.81
2022-11-03T19:00:22.001Z,99643.53
2022-11-03T19:02:52.794Z,99641.97
2022-11-03T19:05:24.350Z,99640.31
2022-11-03T19:07:58.752Z,99637.47
2022-11-03T19:10:30.982Z,99620.22
2022-11-03T19:13:02.696Z,99626.38
2022-11-03T19:15:38.095Z,99633.34
2022-11-03T19:18:12.913Z,99632.16
2022-11-03T19:20:51.178Z,99638.31
2022-11-03T19:23:25.410Z,99626.84
2022-11-03T19:25:58.196Z,99626.47
2022-11-03T19:28:29.621Z,99623.63
2022-11-03T19:31:03.210Z,99630.47
2022-11-03T19:33:37.216Z,99633.94
2022-11-03T19:36:16.595Z,99627.84
2022-11-03T19:38:48.025Z,99638.75
2022-11-03T19:41:44.031Z,99635.19
2022-11-03T19:44:17.238Z,99654.03
2022-11-03T19:46:58.549Z,99650.22
2022-11-03T19:49:38.073Z,99627.19
2022-11-03T19:52:17.838Z,99648.38
2022-11-03T19:54:51.950Z,99647.72
2022-11-03T19:57:23.587Z,99647.72
2022-11-03T20:00:02.607Z,99651.78
2022-11-03T20:02:41.092Z,99664.41
2022-11-03T20:05:15.330Z,99651.84
2022-11-03T20:07:44.367Z,99652.50
2022-11-03T20:10:19.178Z,99651.19
2022-11-03T20:12:57.842Z,99651.56
2022-11-03T20:15:31.567Z,99636.75
2022-11-03T20:18:06.533Z,99675.16
2022-11-03T20:20:38.095Z,99665.44
2022-11-03T20:23:13.492Z,99658.34
2022-11-03T20:25:46.074Z,99663.50
2022-11-03T20:28:18.906Z,99681.91
2022-11-03T20:31:04.686Z,99671.53
2022-11-03T20:33:37.049Z,99718.03
2022-11-03T20:36:07.348Z,99714.50
2022-11-03T20:38:39.629Z,99706.34
2022-11-03T20:41:13.584Z,99734.41
2022-11-03T20:43:45.006Z,99738.50
2022-11-03T20:46:30.698Z,99725.63
2022-11-03T20:49:08.560Z,99731.09
2022-11-03T20:51:48.351Z,99728.63
2022-11-03T20:54:27.560Z,99738.19
2022-11-03T20:57:15.325Z,99742.16
2022-11-03T20:59:49.492Z,99732.22
2022-11-03T21:02:50.915Z,99743.81
2022-11-03T21:05:28.964Z,99748.94
2022-11-03T21:08:21.633Z,99745.91
2022-11-03T21:10:58.490Z,99760.38
2022-11-03T21:13:31.775Z,99766.53
2022-11-03T21:16:24.743Z,99757.06
2022-11-03T21:19:15.752Z,99772.66
2022-11-03T21:21:51.463Z,99764.03
2022-11-03T21:26:59.493Z,99782.47
2022-11-03T21:29:57.997Z,99776.03
2022-11-03T21:32:23.521Z,99773.38
2022-11-03T21:34:58.953Z,99787.91
2022-11-03T21:37:48.930Z,99801.31
2022-11-03T21:40:21.640Z,99796.53
2022-11-03T21:43:08.877Z,99800.19
2022-11-03T21:45:57.968Z,99809.25
2022-11-03T21:48:48.052Z,99810.09
2022-11-03T21:51:24.305Z,99816.06
2022-11-03T21:53:57.054Z,99818.06
2022-11-03T21:56:31.723Z,99826.19
2022-11-03T21:59:06.447Z,99827.19
2022-11-03T22:01:37.500Z,99828.69
2022-11-03T22:04:08.078Z,99836.28
2022-11-03T22:06:37.275Z,99840.78
2022-11-03T22:09:12.988Z,99842.97
2022-11-03T22:11:44.574Z,99850.44
2022-11-03T22:14:13.607Z,99844.00
2022-11-03T22:16:44.593Z,99844.53
2022-11-03T22:19:34.931Z,99852.31
2022-11-03T22:22:23.483Z,99848.84
2022-11-03T22:25:14.912Z,99838.91
2022-11-03T22:27:47.834Z,99841.06
2022-11-03T22:30:35.141Z,99853.81
2022-11-03T22:33:09.759Z,99861.97
2022-11-03T22:35:56.519Z,99873.75
2022-11-03T22:38:47.197Z,99875.94
2022-11-03T22:41:39.941Z,99883.22
2022-11-03T22:44:26.758Z,99890.22
2022-11-03T22:47:05.626Z,99896.53
2022-11-03T22:49:43.132Z,99917.47
2022-11-03T22:52:18.359Z,99920.44
2022-11-03T22:54:47.597Z,99932.25
2022-11-03T22:57:22.630Z,99929.91
2022-11-03T22:59:52.347Z,99940.34
2022-11-03T23:02:21.808Z,99940.84
2022-11-03T23:04:51.001Z,99942.50
2022-11-03T23:07:28.439Z,99941.50
2022-11-03T23:10:05.479Z,99917.63
2022-11-03T23:15:36.102Z,99957.28
2022-11-03T23:18:26.585Z,99972.88
2022-11-03T23:21:14.695Z,99978.34
2022-11-03T23:24:10.069Z,99991.75
2022-11-03T23:26:42.277Z,99997.72
2022-11-03T23:29:13.475Z,100000.03
2022-11-03T23:31:42.496Z,100017.59
2022-11-03T23:34:14.127Z,100024.56
2022-11-03T23:36:45.016Z,100033.66
2022-11-03T23:39:15.488Z,100048.22
2022-11-03T23:41:44.206Z,100052.50
2022-11-03T23:44:15.013Z,100062.28
2022-11-03T23:47:01.010Z,100077.69
2022-11-03T23:49:33.063Z,100074.19
2022-11-03T23:52:02.162Z,100091.75
2022-11-03T23:54:39.597Z,100108.47
2022-11-03T23:57:29.439Z,100112.28
